Time;durP1;ratioP1;P1;durP2;ratioP2;P2;SDS_P1;SDS_P2;PMS_P1;PMS_P2;Temp;Humidity;BMP_temperature;BMP_pressure;BME280_temperature;BME280_humidity;BME280_pressure;Samples;Min_cycle;Max_cycle;Signal;HPM_P1;HPM_P2
2021/03/05 00:01:11;;;;;;;1.27;0.90;;;18.30;51.80;;;;;;10410971;28;20189;-27
2021/03/05 00:06:33;;;;;;;1.07;0.80;;;18.30;51.80;;;;;;10402128;28;20198;-28
2021/03/05 00:11:54;;;;;;;1.50;0.80;;;18.30;51.80;;;;;;10410564;28;20636;-29
2021/03/05 00:17:17;;;;;;;1.90;1.20;;;18.20;51.80;;;;;;10410609;28;20214;-30
2021/03/05 00:22:39;;;;;;;1.00;0.70;;;18.30;51.80;;;;;;10410308;28;20225;-29
2021/03/05 00:28:01;;;;;;;1.30;0.70;;;18.30;51.70;;;;;;10409864;28;20190;-31
2021/03/05 00:33:23;;;;;;;1.40;1.00;;;18.30;51.70;;;;;;10410118;28;20239;-30
2021/03/05 00:38:45;;;;;;;1.03;0.73;;;18.30;51.70;;;;;;10410357;28;20232;-30
2021/03/05 00:44:07;;;;;;;1.23;0.80;;;18.30;51.70;;;;;;10410023;28;20703;-31
2021/03/05 00:49:30;;;;;;;2.67;0.90;;;18.20;51.60;;;;;;10410105;28;20542;-29
2021/03/05 00:54:51;;;;;;;1.60;0.70;;;18.20;51.70;;;;;;10409143;28;20590;-29
2021/03/05 01:00:16;;;;;;;1.10;0.80;;;18.30;51.70;;;;;;10394009;28;20199;-30
2021/03/05 01:05:38;;;;;;;1.67;0.80;;;18.30;51.70;;;;;;10415492;28;20228;-32
2021/03/05 01:11:00;;;;;;;1.20;0.50;;;18.20;51.70;;;;;;10416399;28;20252;-29
2021/03/05 01:16:21;;;;;;;1.53;0.80;;;18.20;51.60;;;;;;10416871;28;20217;-29
2021/03/05 01:21:44;;;;;;;2.23;0.70;;;18.30;51.60;;;;;;10416962;28;20221;-28
2021/03/05 01:27:06;;;;;;;1.20;0.73;;;18.20;51.50;;;;;;10417041;28;20186;-28
2021/03/05 01:32:28;;;;;;;1.30;0.83;;;18.20;51.60;;;;;;10434007;22;20232;-26
2021/03/05 01:37:51;;;;;;;1.17;0.70;;;18.20;51.60;;;;;;10450285;28;20213;-27
2021/03/05 01:43:17;;;;;;;0.87;0.67;;;18.20;51.50;;;;;;10440473;28;20608;-27
2021/03/05 01:48:40;;;;;;;0.83;0.70;;;18.20;51.60;;;;;;10413693;28;20182;-25
2021/03/05 01:54:04;;;;;;;0.97;0.60;;;18.20;51.40;;;;;;10397725;28;20257;-30
2021/03/05 01:59:29;;;;;;;2.07;0.57;;;18.20;51.60;;;;;;10393229;28;20225;-26
2021/03/05 02:04:50;;;;;;;2.13;0.60;;;18.20;51.50;;;;;;10417164;28;20703;-30
2021/03/05 02:10:13;;;;;;;0.90;0.50;;;18.20;51.40;;;;;;10415031;28;20216;-27
2021/03/05 02:15:37;;;;;;;1.03;0.70;;;18.20;51.40;;;;;;10415140;28;20220;-27
2021/03/05 02:21:13;;;;;;;0.93;0.60;;;18.20;51.40;;;;;;10402749;28;20273;-27
2021/03/05 02:27:15;;;;;;;1.80;0.73;;;18.20;51.30;;;;;;10368340;28;20263;-26
2021/03/05 02:32:46;;;;;;;1.57;0.67;;;18.20;51.30;;;;;;10413359;28;20225;-26
2021/03/05 02:38:10;;;;;;;1.47;0.70;;;18.10;51.30;;;;;;10413629;28;20580;-26
2021/03/05 02:43:34;;;;;;;2.60;0.80;;;18.20;51.40;;;;;;10413833;28;20214;-26
2021/03/05 02:49:00;;;;;;;0.90;0.60;;;18.20;51.40;;;;;;10413246;28;20194;-26
2021/03/05 02:54:23;;;;;;;0.90;0.60;;;18.20;51.30;;;;;;10409768;28;20237;-27
2021/03/05 02:59:46;;;;;;;1.23;0.60;;;18.10;51.30;;;;;;10374797;28;20279;-26
2021/03/05 03:05:11;;;;;;;1.13;0.60;;;18.10;51.30;;;;;;10332439;28;20270;-25
2021/03/05 03:10:33;;;;;;;1.27;0.40;;;18.10;51.30;;;;;;10331664;28;20282;-26
2021/03/05 03:15:56;;;;;;;0.50;0.40;;;18.20;51.30;;;;;;10331649;28;20223;-28
2021/03/05 03:21:20;;;;;;;1.40;0.63;;;18.10;51.30;;;;;;10331514;28;20231;-26
2021/03/05 03:26:41;;;;;;;0.93;0.50;;;18.10;51.30;;;;;;10330666;28;20218;-28
2021/03/05 03:32:04;;;;;;;1.40;0.70;;;18.10;51.20;;;;;;10332414;28;20270;-26
2021/03/05 03:37:28;;;;;;;0.80;0.63;;;18.10;51.20;;;;;;10331402;28;20211;-23
2021/03/05 03:42:50;;;;;;;0.63;0.40;;;18.10;51.10;;;;;;10331091;28;20257;-26
2021/03/05 03:48:13;;;;;;;1.13;0.63;;;18.10;51.20;;;;;;10331898;28;20206;-26
2021/03/05 03:53:37;;;;;;;1.13;0.80;;;18.10;51.20;;;;;;10331126;28;20215;-25
2021/03/05 03:59:02;;;;;;;0.80;0.60;;;18.10;51.20;;;;;;10353241;28;20881;-26
2021/03/05 04:04:28;;;;;;;0.80;0.57;;;18.10;51.20;;;;;;10336136;28;20242;-25
2021/03/05 04:09:51;;;;;;;1.33;0.57;;;18.10;51.20;;;;;;10331975;28;20198;-26
2021/03/05 04:15:13;;;;;;;1.03;0.50;;;18.10;51.10;;;;;;10330444;28;20223;-29
2021/03/05 04:20:37;;;;;;;0.90;0.50;;;18.10;51.20;;;;;;10329871;28;20191;-26
2021/03/05 04:26:00;;;;;;;1.10;0.60;;;18.10;51.20;;;;;;10331038;28;20238;-29
2021/03/05 04:31:21;;;;;;;2.33;0.50;;;18.10;51.20;;;;;;10331815;28;20210;-26
2021/03/05 04:36:43;;;;;;;1.27;0.57;;;18.10;51.10;;;;;;10330193;28;20238;-28
2021/03/05 04:42:06;;;;;;;1.03;0.60;;;18.10;51.10;;;;;;10337602;28;20708;-28
2021/03/05 04:47:27;;;;;;;0.57;0.50;;;18.10;51.10;;;;;;10337731;28;20654;-26
2021/03/05 04:52:49;;;;;;;0.60;0.40;;;18.20;51.00;;;;;;10342490;28;20230;-29
2021/03/05 04:58:12;;;;;;;1.20;0.70;;;18.20;51.00;;;;;;10377221;28;20226;-27
2021/03/05 05:03:33;;;;;;;1.30;0.80;;;18.20;51.00;;;;;;10375947;28;20227;-30
2021/03/05 05:08:55;;;;;;;2.13;0.70;;;18.20;51.00;;;;;;10374096;28;20201;-26
2021/03/05 05:14:17;;;;;;;0.83;0.50;;;18.20;51.10;;;;;;10417059;28;20707;-26
2021/03/05 05:19:39;;;;;;;1.23;0.40;;;18.10;51.10;;;;;;10416738;28;20268;-25
2021/03/05 05:25:01;;;;;;;1.37;0.70;;;18.10;51.00;;;;;;10417119;28;20225;-28
2021/03/05 05:30:24;;;;;;;1.20;0.80;;;18.10;51.10;;;;;;10418044;28;20194;-24
2021/03/05 05:35:46;;;;;;;2.23;0.70;;;18.10;51.20;;;;;;10417051;28;20221;-26
2021/03/05 05:41:07;;;;;;;1.23;0.60;;;18.10;51.10;;;;;;10417724;28;20546;-26
2021/03/05 05:46:30;;;;;;;1.20;0.70;;;18.10;51.10;;;;;;10415923;28;20584;-26
2021/03/05 05:51:57;;;;;;;1.23;0.50;;;18.10;51.00;;;;;;10415007;28;20201;-26
2021/03/05 05:57:18;;;;;;;1.03;0.50;;;18.10;50.90;;;;;;10401755;28;20698;-27
2021/03/05 06:02:43;;;;;;;0.53;0.50;;;18.20;50.80;;;;;;10374857;28;20214;-26
2021/03/05 06:08:06;;;;;;;1.17;0.50;;;18.10;50.70;;;;;;10374251;28;20382;-27
2021/03/05 06:13:28;;;;;;;2.30;0.70;;;18.20;50.80;;;;;;10378915;28;20249;-26
2021/03/05 06:18:51;;;;;;;0.90;0.60;;;18.20;50.80;;;;;;10375646;28;20227;-28
2021/03/05 06:24:13;;;;;;;0.97;0.43;;;18.10;50.80;;;;;;10374921;28;20245;-26
2021/03/05 06:29:41;;;;;;;2.45;0.80;;;18.10;50.80;;;;;;10371914;28;20415;-27
2021/03/05 06:35:08;;;;;;;1.30;0.70;;;18.70;49.30;;;;;;10373134;28;20230;-29
2021/03/05 06:40:30;;;;;;;1.20;0.40;;;18.30;50.50;;;;;;10371511;28;20214;-27
2021/03/05 06:45:52;;;;;;;1.53;0.57;;;18.20;50.90;;;;;;10371724;28;20249;-26
2021/03/05 06:51:14;;;;;;;2.30;0.60;;;18.10;51.00;;;;;;10354078;28;20612;-26
2021/03/05 06:56:38;;;;;;;3.10;1.40;;;18.10;51.00;;;;;;10391954;28;20233;-28
2021/03/05 07:02:00;;;;;;;3.67;1.37;;;17.90;42.80;;;;;;10371039;28;20201;-27
2021/03/05 07:07:23;;;;;;;5.40;1.80;;;17.70;40.30;;;;;;10371081;28;20206;-28
2021/03/05 07:13:01;;;;;;;3.50;1.60;;;17.70;38.80;;;;;;10400158;28;20221;-26
2021/03/05 07:18:23;;;;;;;3.57;1.40;;;17.70;37.50;;;;;;10368394;28;20273;-27
2021/03/05 07:23:46;;;;;;;5.43;1.70;;;17.70;36.80;;;;;;10336462;28;20718;-27
2021/03/05 07:29:16;;;;;;;7.43;1.80;;;17.70;36.20;;;;;;10369159;28;20558;-28
2021/03/05 07:34:47;;;;;;;4.33;1.70;;;17.70;36.00;;;;;;10443554;23;20370;-27
2021/03/05 07:40:13;;;;;;;3.67;1.80;;;17.70;35.60;;;;;;10451339;28;20217;-28
2021/03/05 07:45:35;;;;;;;4.50;1.53;;;17.60;35.60;;;;;;10400042;28;20221;-27
2021/03/05 07:50:59;;;;;;;2.67;1.30;;;17.60;35.50;;;;;;10408799;28;20545;-26
2021/03/05 07:56:41;;;;;;;2.97;1.60;;;17.70;35.50;;;;;;10418502;28;20719;-26
2021/03/05 08:02:02;;;;;;;3.47;1.33;;;17.70;35.20;;;;;;10410489;28;20194;-26
2021/03/05 08:07:26;;;;;;;1.97;1.17;;;17.80;37.80;;;;;;10410481;28;20186;-25
2021/03/05 08:12:48;;;;;;;4.33;1.60;;;18.20;40.60;;;;;;10402726;28;20217;-25
2021/03/05 08:18:19;;;;;;;2.30;1.33;;;18.40;41.70;;;;;;10405681;28;20213;-26
2021/03/05 08:24:26;;;;;;;3.10;1.10;;;18.70;42.50;;;;;;10409516;28;20221;-26
2021/03/05 08:29:53;;;;;;;3.23;1.23;;;18.90;42.90;;;;;;10408509;28;20189;-25
2021/03/05 08:35:15;;;;;;;2.40;0.80;;;19.30;42.50;;;;;;10432302;28;20235;-25
2021/03/05 08:40:38;;;;;;;2.23;0.97;;;20.10;41.60;;;;;;10449083;28;20606;-26
2021/03/05 08:46:03;;;;;;;1.57;0.87;;;21.30;39.60;;;;;;10449806;28;20213;-26
2021/03/05 08:51:25;;;;;;;2.40;1.00;;;22.70;37.10;;;;;;10409961;28;20247;-26
2021/03/05 08:56:53;;;;;;;1.63;0.90;;;23.90;35.10;;;;;;10418685;28;20576;-27
2021/03/05 09:02:16;;;;;;;2.27;1.17;;;24.20;34.20;;;;;;10457483;28;20193;-26
2021/03/05 09:07:46;;;;;;;2.50;1.13;;;23.70;35.00;;;;;;10450305;28;20197;-26
2021/03/05 09:13:08;;;;;;;1.93;1.00;;;22.80;36.50;;;;;;10480258;28;20227;-26
2021/03/05 09:18:33;;;;;;;1.33;1.00;;;21.90;38.40;;;;;;10481920;28;20216;-27
2021/03/05 09:23:57;;;;;;;1.40;0.87;;;21.20;40.10;;;;;;10492467;28;20691;-26
2021/03/05 09:29:28;;;;;;;2.17;1.00;;;20.70;41.60;;;;;;10499015;28;20203;-25
2021/03/05 09:34:53;;;;;;;1.10;1.00;;;20.30;42.60;;;;;;10498074;28;20220;-26
2021/03/05 09:40:15;;;;;;;1.10;0.77;;;20.00;43.60;;;;;;10497418;28;20567;-26
2021/03/05 09:45:41;;;;;;;1.60;0.70;;;19.70;44.20;;;;;;10495568;28;20219;-27
2021/03/05 09:51:07;;;;;;;1.37;0.80;;;19.50;44.90;;;;;;10455909;28;20198;-25
2021/03/05 09:56:29;;;;;;;1.27;0.93;;;19.30;45.60;;;;;;10456908;28;20224;-26
2021/03/05 10:01:50;;;;;;;2.40;0.90;;;19.10;46.10;;;;;;10455672;28;20577;-25
2021/03/05 10:07:13;;;;;;;1.57;0.93;;;19.00;46.40;;;;;;10455728;28;20213;-26
2021/03/05 10:12:35;;;;;;;1.40;0.80;;;19.00;46.70;;;;;;10454808;28;20572;-26
2021/03/05 10:17:58;;;;;;;1.67;0.80;;;18.90;47.00;;;;;;10461780;28;20231;-26
2021/03/05 10:23:23;;;;;;;1.77;1.00;;;18.80;47.20;;;;;;10484138;28;20212;-25
2021/03/05 10:28:46;;;;;;;1.83;0.70;;;18.80;47.40;;;;;;10496291;28;20685;-27
2021/03/05 10:34:19;;;;;;;1.13;0.70;;;18.80;47.60;;;;;;10495681;28;20647;-25
2021/03/05 10:39:43;;;;;;;2.40;0.70;;;18.70;47.70;;;;;;10495334;28;20299;-26
2021/03/05 10:45:06;;;;;;;1.80;0.80;;;18.80;48.00;;;;;;10494459;28;20213;-27
2021/03/05 10:50:27;;;;;;;0.80;0.57;;;19.30;47.10;;;;;;10449615;28;20508;-27
2021/03/05 10:55:50;;;;;;;1.43;0.50;;;19.80;46.30;;;;;;10453411;28;20271;-26
2021/03/05 11:01:11;;;;;;;2.17;0.60;;;20.20;45.60;;;;;;10455071;28;20190;-26
2021/03/05 11:06:33;;;;;;;1.13;0.70;;;20.40;45.30;;;;;;10456908;28;20213;-25
2021/03/05 11:11:57;;;;;;;1.10;0.70;;;20.40;45.40;;;;;;10473988;28;20211;-26
2021/03/05 11:17:21;;;;;;;0.90;0.60;;;20.40;45.30;;;;;;10494958;28;20205;-26
2021/03/05 11:22:42;;;;;;;1.67;0.70;;;20.50;45.20;;;;;;10476573;28;20892;-25
2021/03/05 11:28:06;;;;;;;1.03;0.50;;;20.60;45.70;;;;;;10479091;28;20204;-26
2021/03/05 11:33:29;;;;;;;1.03;0.50;;;20.70;45.00;;;;;;10493757;28;20224;-26
2021/03/05 11:38:51;;;;;;;1.23;0.50;;;20.70;45.00;;;;;;10494064;28;20220;-25
2021/03/05 11:44:15;;;;;;;1.17;0.50;;;20.70;45.00;;;;;;10493899;28;20225;-25
2021/03/05 11:49:36;;;;;;;0.93;0.53;;;20.70;45.00;;;;;;10456920;28;20576;-27
2021/03/05 11:55:00;;;;;;;0.60;0.40;;;20.80;44.90;;;;;;10470071;28;20224;-26
2021/03/05 12:00:23;;;;;;;0.70;0.50;;;20.80;44.80;;;;;;10413617;28;20299;-25
2021/03/05 12:05:45;;;;;;;1.20;0.43;;;20.90;44.70;;;;;;10412243;28;20216;-25
2021/03/05 12:11:06;;;;;;;0.93;0.50;;;20.60;45.20;;;;;;10409808;28;20204;-26
2021/03/05 12:16:29;;;;;;;1.07;0.70;;;20.30;45.70;;;;;;10460840;28;20710;-26
2021/03/05 12:21:50;;;;;;;0.40;0.40;;;20.10;46.10;;;;;;10409357;28;20193;-25
2021/03/05 12:27:12;;;;;;;0.53;0.47;;;20.20;46.20;;;;;;10409990;28;20217;-27
2021/03/05 12:32:35;;;;;;;0.97;0.53;;;20.20;46.20;;;;;;10482288;28;20732;-26
2021/03/05 12:37:56;;;;;;;0.90;0.40;;;20.30;46.10;;;;;;10491631;28;20210;-27
2021/03/05 12:43:18;;;;;;;0.70;0.50;;;20.40;45.90;;;;;;10491049;28;20224;-26
2021/03/05 12:48:41;;;;;;;0.70;0.53;;;20.40;45.90;;;;;;10464328;28;20261;-26
2021/03/05 12:54:04;;;;;;;0.93;0.47;;;20.30;46.10;;;;;;10450476;28;20220;-25
2021/03/05 12:59:25;;;;;;;4.03;0.70;;;20.30;46.10;;;;;;10484280;28;20258;-26
2021/03/05 13:04:48;;;;;;;2.13;0.40;;;20.40;46.20;;;;;;10499113;28;20212;-26
2021/03/05 13:10:10;;;;;;;3.17;0.40;;;20.40;46.10;;;;;;10499683;28;20200;-26
2021/03/05 13:15:32;;;;;;;0.70;0.50;;;20.40;45.90;;;;;;10493282;28;20216;-26
2021/03/05 13:20:54;;;;;;;0.53;0.40;;;20.50;46.00;;;;;;10455823;28;20220;-26
2021/03/05 13:26:16;;;;;;;2.73;0.50;;;20.90;45.50;;;;;;10482770;28;20365;-26
2021/03/05 13:31:38;;;;;;;1.07;0.50;;;21.30;44.60;;;;;;10498411;28;20282;-26
2021/03/05 13:37:00;;;;;;;0.50;0.30;;;21.60;43.80;;;;;;10461240;22;20236;-26
2021/03/05 13:42:22;;;;;;;0.67;0.30;;;21.70;43.40;;;;;;10417138;28;20208;-25
2021/03/05 13:47:44;;;;;;;3.10;0.40;;;21.40;43.60;;;;;;10384308;28;20218;-26
2021/03/05 13:53:06;;;;;;;1.13;0.40;;;21.20;44.10;;;;;;10413974;28;20206;-24
2021/03/05 13:58:28;;;;;;;3.50;0.67;;;21.20;44.20;;;;;;10358216;28;20694;-25
2021/03/05 14:03:49;;;;;;;0.50;0.27;;;21.20;44.20;;;;;;10345055;28;20217;-25
2021/03/05 14:09:12;;;;;;;0.67;0.30;;;21.20;44.10;;;;;;10398820;28;20216;-25
2021/03/05 14:14:34;;;;;;;1.17;0.60;;;21.20;44.10;;;;;;10395474;28;20221;-25
2021/03/05 14:19:56;;;;;;;1.37;0.37;;;21.20;44.10;;;;;;10411298;28;20225;-25
2021/03/05 14:25:19;;;;;;;1.03;0.50;;;21.20;43.80;;;;;;10412361;28;20271;-24
2021/03/05 14:30:40;;;;;;;3.67;0.67;;;21.20;43.50;;;;;;10412533;28;20201;-24
2021/03/05 14:36:03;;;;;;;2.73;1.00;;;21.20;43.30;;;;;;10412946;28;20222;-24
2021/03/05 14:41:26;;;;;;;1.70;0.50;;;21.20;43.50;;;;;;10411974;28;20201;-24
2021/03/05 14:46:48;;;;;;;1.40;0.50;;;21.20;43.70;;;;;;10400300;28;20214;-24
2021/03/05 14:52:09;;;;;;;4.97;0.60;;;20.90;44.10;;;;;;10401309;28;20276;-24
2021/03/05 14:57:32;;;;;;;3.10;0.60;;;20.70;44.30;;;;;;10386190;28;20222;-24
2021/03/05 15:02:54;;;;;;;3.60;0.63;;;20.60;44.20;;;;;;10375735;28;20195;-23
2021/03/05 15:08:16;;;;;;;1.93;0.30;;;20.50;44.00;;;;;;10369931;28;20195;-25
2021/03/05 15:13:38;;;;;;;3.10;0.77;;;20.50;44.00;;;;;;10355099;28;20218;-25
2021/03/05 15:19:00;;;;;;;3.97;0.73;;;20.50;44.20;;;;;;10378911;28;20221;-25
2021/03/05 15:24:22;;;;;;;3.87;0.40;;;20.30;44.60;;;;;;10400518;28;20307;-25
2021/03/05 15:29:45;;;;;;;1.03;0.63;;;20.20;44.50;;;;;;10411626;28;20568;-25
2021/03/05 15:35:07;;;;;;;3.20;0.60;;;20.20;44.40;;;;;;10372633;28;20657;-25
2021/03/05 15:40:29;;;;;;;3.37;0.50;;;20.20;44.50;;;;;;10368604;28;20227;-25
2021/03/05 15:45:51;;;;;;;7.13;0.70;;;20.20;44.60;;;;;;10368675;28;20601;-25
2021/03/05 15:51:13;;;;;;;2.17;0.40;;;20.20;44.70;;;;;;10329164;28;20682;-24
2021/03/05 15:56:35;;;;;;;2.33;0.70;;;20.10;44.40;;;;;;10345698;28;20688;-25
2021/03/05 16:01:57;;;;;;;0.67;0.40;;;20.10;44.50;;;;;;10368522;28;20206;-27
2021/03/05 16:07:19;;;;;;;1.30;0.57;;;20.20;44.60;;;;;;10377259;28;20213;-26
2021/03/05 16:12:40;;;;;;;2.43;0.37;;;20.20;44.50;;;;;;10370431;28;20201;-25
2021/03/05 16:18:03;;;;;;;1.17;0.50;;;20.20;44.60;;;;;;10352596;28;20218;-26
2021/03/05 16:23:25;;;;;;;0.50;0.33;;;20.20;44.70;;;;;;10365027;28;20233;-25
2021/03/05 16:28:47;;;;;;;2.90;0.50;;;20.10;44.70;;;;;;10368767;28;20198;-25
2021/03/05 16:34:09;;;;;;;2.00;0.63;;;20.20;44.80;;;;;;10375815;28;20708;-25
2021/03/05 16:39:31;;;;;;;0.70;0.40;;;20.10;44.80;;;;;;10382173;28;20210;-25
2021/03/05 16:44:53;;;;;;;1.43;0.50;;;20.20;45.00;;;;;;10382803;28;20581;-25
2021/03/05 16:50:16;;;;;;;2.77;0.67;;;20.20;45.10;;;;;;10382803;28;20201;-25
2021/03/05 16:55:38;;;;;;;0.77;0.40;;;20.20;45.40;;;;;;10382725;28;20683;-25
2021/03/05 17:01:00;;;;;;;0.73;0.50;;;20.20;45.20;;;;;;10383135;28;20240;-25
2021/03/05 17:06:22;;;;;;;6.57;0.80;;;20.30;45.20;;;;;;10400746;28;20221;-22
2021/03/05 17:11:44;;;;;;;2.37;0.70;;;20.20;45.30;;;;;;10422546;28;20197;-25
2021/03/05 17:17:05;;;;;;;0.57;0.43;;;20.30;45.40;;;;;;10422436;28;20639;-24
2021/03/05 17:22:28;;;;;;;1.07;0.43;;;20.30;45.50;;;;;;10414297;28;20198;-25
2021/03/05 17:27:49;;;;;;;0.90;0.60;;;20.30;45.50;;;;;;10389114;28;20219;-26
2021/03/05 17:33:11;;;;;;;2.10;0.50;;;20.20;45.50;;;;;;10380480;28;20245;-26
2021/03/05 17:38:33;;;;;;;1.30;0.53;;;20.10;45.60;;;;;;10381691;28;20225;-25
2021/03/05 17:43:55;;;;;;;0.97;0.60;;;20.10;45.70;;;;;;10378956;28;20213;-26
2021/03/05 17:49:17;;;;;;;1.60;0.57;;;20.10;45.60;;;;;;10374339;28;20261;-26
2021/03/05 17:54:39;;;;;;;1.20;0.80;;;20.20;45.70;;;;;;10375303;28;20219;-25
2021/03/05 18:00:01;;;;;;;2.57;0.67;;;20.20;45.70;;;;;;10381349;28;20289;-25
2021/03/05 18:05:23;;;;;;;2.23;0.87;;;20.40;45.50;;;;;;10355990;28;20256;-23
2021/03/05 18:10:46;;;;;;;2.00;0.80;;;20.50;45.40;;;;;;10333056;28;20242;-23
2021/03/05 18:16:07;;;;;;;1.13;0.87;;;20.50;45.20;;;;;;10333067;28;20227;-24
2021/03/05 18:21:29;;;;;;;3.33;1.00;;;20.60;45.10;;;;;;10331399;28;20222;-23
2021/03/05 18:26:51;;;;;;;1.53;1.00;;;20.40;45.10;;;;;;10331564;28;20217;-23
2021/03/05 18:32:13;;;;;;;3.77;1.00;;;20.30;45.30;;;;;;10331610;28;20195;-23
2021/03/05 18:37:35;;;;;;;1.67;1.13;;;20.40;45.30;;;;;;10330891;28;20222;-23
2021/03/05 18:42:58;;;;;;;2.83;1.17;;;20.40;45.30;;;;;;10357884;28;20202;-23
2021/03/05 18:48:19;;;;;;;3.40;1.00;;;20.30;45.40;;;;;;10370462;28;20624;-23
2021/03/05 18:53:41;;;;;;;2.57;1.10;;;20.30;45.50;;;;;;10365734;28;20291;-24
2021/03/05 18:59:04;;;;;;;2.07;1.03;;;20.30;45.40;;;;;;10387737;28;20240;-23
2021/03/05 19:04:25;;;;;;;1.53;0.80;;;20.40;45.40;;;;;;10405544;28;20279;-23
2021/03/05 19:09:47;;;;;;;2.33;1.00;;;20.40;45.40;;;;;;10384425;28;20209;-23
2021/03/05 19:15:11;;;;;;;3.67;1.27;;;20.30;45.50;;;;;;10364714;28;20214;-24
2021/03/05 19:20:33;;;;;;;1.23;1.13;;;20.30;45.60;;;;;;10369556;28;20214;-23
2021/03/05 19:25:54;;;;;;;3.40;1.60;;;20.20;45.70;;;;;;10363967;28;20224;-23
2021/03/05 19:31:17;;;;;;;2.27;1.37;;;20.50;45.30;;;;;;10364287;28;20500;-23
2021/03/05 19:36:38;;;;;;;1.67;1.33;;;21.20;44.20;;;;;;10335335;28;20238;-23
2021/03/05 19:42:01;;;;;;;2.00;1.50;;;21.60;43.40;;;;;;10381589;28;20202;-23
2021/03/05 19:47:23;;;;;;;1.80;1.40;;;21.90;42.90;;;;;;10364669;28;20648;-23
2021/03/05 19:52:45;;;;;;;2.73;1.60;;;22.10;42.50;;;;;;10363521;28;20198;-23
2021/03/05 19:58:07;;;;;;;1.30;1.20;;;22.40;42.20;;;;;;10363451;28;20226;-23
2021/03/05 20:03:29;;;;;;;2.53;1.67;;;22.60;42.00;;;;;;10363079;28;20298;-23
2021/03/05 20:08:51;;;;;;;1.47;1.20;;;22.60;42.00;;;;;;10384291;28;20212;-23
2021/03/05 20:14:13;;;;;;;2.23;1.20;;;22.80;42.00;;;;;;10402676;28;20217;-23
2021/03/05 20:19:35;;;;;;;1.70;1.40;;;22.90;41.70;;;;;;10403292;28;20723;-24
2021/03/05 20:24:57;;;;;;;2.00;1.10;;;23.10;41.40;;;;;;10377087;28;20744;-23
2021/03/05 20:30:20;;;;;;;1.97;1.20;;;23.20;41.00;;;;;;10362795;28;20190;-23
2021/03/05 20:35:42;;;;;;;2.43;1.50;;;23.30;41.00;;;;;;10424663;23;20236;-22
2021/03/05 20:41:04;;;;;;;2.10;1.23;;;23.30;40.80;;;;;;10462694;28;20239;-24
2021/03/05 20:46:26;;;;;;;2.00;1.10;;;23.40;40.70;;;;;;10462829;28;20223;-25
2021/03/05 20:51:48;;;;;;;1.83;1.40;;;23.60;40.50;;;;;;10449985;28;20197;-26
2021/03/05 20:57:10;;;;;;;1.10;1.00;;;23.70;40.20;;;;;;10446282;28;20220;-26
2021/03/05 21:02:32;;;;;;;2.50;1.30;;;23.80;40.00;;;;;;10444852;28;20198;-25
2021/03/05 21:07:54;;;;;;;2.50;1.33;;;23.80;40.00;;;;;;10448505;28;20224;-24
2021/03/05 21:13:16;;;;;;;1.97;1.40;;;23.80;40.00;;;;;;10448828;28;20197;-26
2021/03/05 21:18:37;;;;;;;1.33;1.23;;;23.90;39.90;;;;;;10448710;28;20636;-26
2021/03/05 21:24:00;;;;;;;1.87;1.27;;;23.70;39.80;;;;;;10448666;28;20247;-27
2021/03/05 21:29:22;;;;;;;2.23;1.43;;;23.70;39.80;;;;;;10457173;28;20200;-27
2021/03/05 21:34:43;;;;;;;3.77;1.50;;;23.40;40.10;;;;;;10457322;28;20229;-26
2021/03/05 21:40:08;;;;;;;2.07;1.60;;;23.10;40.60;;;;;;10456629;28;20613;-26
2021/03/05 21:45:29;;;;;;;1.90;1.47;;;22.80;41.20;;;;;;10456816;28;20217;-27
2021/03/05 21:50:51;;;;;;;1.60;1.33;;;22.50;41.80;;;;;;10456396;28;20193;-24
2021/03/05 21:56:13;;;;;;;2.50;1.50;;;22.30;42.30;;;;;;10456338;28;20209;-27
2021/03/05 22:01:35;;;;;;;2.37;1.57;;;21.90;42.90;;;;;;10443837;28;20221;-26
2021/03/05 22:06:57;;;;;;;2.17;1.63;;;21.50;43.40;;;;;;10455346;28;20217;-26
2021/03/05 22:12:19;;;;;;;2.33;1.60;;;21.30;43.70;;;;;;10455993;28;20197;-27
2021/03/05 22:17:41;;;;;;;1.60;1.30;;;21.30;43.90;;;;;;10455655;28;20221;-23
2021/03/05 22:23:02;;;;;;;1.80;1.53;;;21.10;44.20;;;;;;10455609;28;20197;-27
2021/03/05 22:28:25;;;;;;;1.27;1.17;;;20.90;44.40;;;;;;10455963;28;20768;-27
2021/03/05 22:33:46;;;;;;;2.63;1.60;;;20.80;44.60;;;;;;10455040;28;20208;-25
2021/03/05 22:39:08;;;;;;;3.87;1.43;;;20.80;44.70;;;;;;10454852;28;20209;-25
2021/03/05 22:44:31;;;;;;;1.87;1.40;;;20.70;45.00;;;;;;10454033;28;20633;-26
2021/03/05 22:49:52;;;;;;;1.73;1.30;;;20.70;44.70;;;;;;10455086;28;20915;-26
2021/03/05 22:55:14;;;;;;;1.77;1.27;;;20.60;44.80;;;;;;10454636;28;20884;-25
2021/03/05 23:00:37;;;;;;;3.30;1.73;;;20.50;45.00;;;;;;10453756;28;20223;-25
2021/03/05 23:05:59;;;;;;;2.33;1.60;;;20.50;45.20;;;;;;10444560;28;20248;-26
2021/03/05 23:11:21;;;;;;;2.33;1.73;;;20.50;45.20;;;;;;10453529;28;20192;-25
2021/03/05 23:16:43;;;;;;;1.77;1.50;;;20.40;45.10;;;;;;10451361;28;20224;-26
2021/03/05 23:22:05;;;;;;;1.63;1.23;;;20.40;45.10;;;;;;10449403;28;20592;-27
2021/03/05 23:27:27;;;;;;;1.50;1.40;;;20.30;45.20;;;;;;10453700;28;20663;-26
2021/03/05 23:32:49;;;;;;;1.70;1.40;;;20.30;45.30;;;;;;10453036;28;20201;-26
2021/03/05 23:38:14;;;;;;;2.67;1.40;;;20.30;45.40;;;;;;10452433;28;20247;-26
2021/03/05 23:43:35;;;;;;;1.70;1.40;;;20.30;45.30;;;;;;10452342;28;20201;-29
2021/03/05 23:48:58;;;;;;;1.87;1.37;;;20.30;45.40;;;;;;10452420;28;20240;-27
2021/03/05 23:54:19;;;;;;;2.70;1.40;;;20.20;45.50;;;;;;10452219;28;20201;-27
2021/03/05 23:59:41;;;;;;;1.63;1.27;;;20.20;45.50;;;;;;10442962;28;20319;-25
